Terminal Aerodrome Forecast
Issued by NWS Cleveland, OH

Home | Current Version | Previous Version | Text Only | Print | Product List | Glossary Off
Versions: 1 2 3 4 5 6 7 8 9 10 11 12 13 14 15

000
FTUS41 KCLE 181700
TAFYNG
TAF
KYNG 181739Z 1818/1918 24018G30KT P6SM BKN025
     FM182200 24015G25KT P6SM BKN035
     FM190300 23012KT P6SM BKN035 OVC150
     FM191500 20015G25KT P6SM OVC035=

USA.gov is the U.S. government's official web portal to all federal, state and local government web resources and services.